Date,TemperatureHighF,TemperatureAvgF,TemperatureLowF,DewpointHighF,DewpointAvgF,DewpointLowF,HumidityHigh,HumidityAvg,HumidityLow,PressureMaxIn,PressureMinIn,WindSpeedMaxMPH,WindSpeedAvgMPH,GustSpeedMaxMPH,PrecipitationSumIn
2013-1-1,24.8,17.8,6.9,19.4,11.1,3.1,88,76,51,30.26,30.10,4,0,4,0.01
2013-1-2,35.3,21.8,5.6,24.3,15.1,1.8,87,76,59,30.24,30.08,16,2,16,0.01
2013-1-3,38.9,27.5,16.2,28.4,21.5,13.7,93,79,59,30.36,30.18,11,0,11,0.01
2013-1-4,42.8,28.1,11.9,27.0,20.3,9.0,91,74,51,30.36,30.19,16,2,17,0.00
2013-1-5,42.2,35.6,28.2,34.4,29.4,23.6,86,78,70,30.19,30.00,17,2,17,0.00
2013-1-6,39.8,28.8,21.8,24.7,20.7,17.0,90,73,45,30.32,30.08,10,1,10,0.00
2013-1-7,49.6,35.0,22.4,26.8,23.2,17.8,89,64,38,30.26,30.00,18,2,18,0.00
2013-1-8,53.6,41.2,25.8,37.9,29.7,22.2,88,65,43,30.08,29.91,14,2,21,0.00
2013-1-9,53.6,36.1,24.7,35.6,30.4,22.9,95,81,46,30.34,30.08,0,0,0,0.00
2013-1-13,12.8,9.3,6.3,8.1,5.5,2.7,86,84,81,30.33,30.27,0,0,0,0.00
2013-1-14,27.3,14.9,2.8,13.8,5.8,-1.2,87,69,40,30.47,30.33,7,0,7,0.01
2013-1-15,29.3,17.0,4.8,15.9,9.1,1.0,87,73,44,30.37,30.14,6,0,6,0.01
2013-1-16,42.2,25.6,8.8,24.8,16.1,5.4,88,70,44,30.15,29.97,20,2,20,0.03
2013-1-17,44.1,33.2,23.0,29.8,25.7,20.4,92,75,48,30.40,30.08,6,0,6,0.00
2013-1-18,55.7,41.7,24.4,32.2,28.3,21.3,91,61,38,30.36,29.97,21,6,25,0.01
2013-1-19,60.7,48.3,41.2,35.3,31.8,27.7,68,54,31,30.14,29.89,22,5,22,0.00
2013-1-20,41.3,29.1,21.6,29.4,14.4,9.1,72,54,40,30.33,30.14,7,0,7,0.00
2013-1-21,23.2,18.0,12.1,10.7,4.4,-4.5,84,57,35,30.40,30.32,9,1,10,0.00
2013-1-22,27.5,19.2,11.9,10.0,4.4,0.0,70,53,41,30.39,30.24,7,1,8,0.00
2013-1-23,47.9,28.2,10.9,22.8,14.9,6.3,85,59,34,30.34,30.10,5,0,7,0.00
2013-1-24,27.2,20.9,11.1,14.9,6.8,1.7,69,55,42,30.48,30.13,12,2,12,0.00
2013-1-25,46.4,31.9,22.4,20.9,15.3,9.5,79,52,33,30.18,30.08,13,1,13,0.00
2013-1-26,51.0,36.9,22.1,27.4,23.9,18.1,86,62,39,30.26,30.04,10,1,10,0.00
2013-1-27,62.7,50.1,37.9,54.9,43.3,24.1,89,78,47,30.05,29.68,21,3,21,0.20
2013-1-28,74.2,65.4,56.6,60.5,57.0,53.2,89,75,55,29.76,29.58,25,4,25,0.00
2013-1-29,67.8,53.8,37.0,60.6,50.6,35.9,98,90,72,29.58,29.34,25,3,25,2.29
2013-1-30,37.0,28.9,24.4,35.9,23.3,14.4,96,80,65,29.93,29.35,21,6,21,0.14
2013-1-31,26.3,20.1,9.0,19.7,10.1,-0.7,81,65,48,30.45,29.90,21,3,21,0.00
2013-2-1,27.9,18.7,5.0,16.0,6.4,-1.2,83,59,43,30.47,30.12,11,1,12,0.00
2013-2-2,44.3,34.1,25.3,33.2,23.5,15.3,87,65,54,30.14,29.98,15,1,15,0.00
2013-2-3,45.5,38.6,33.8,32.2,21.6,10.3,72,52,29,30.20,29.80,12,1,12,0.00
2013-2-4,48.8,38.9,21.4,32.8,27.5,19.1,91,65,48,29.92,29.69,10,1,11,0.00
2013-2-5,57.6,36.4,19.4,33.4,25.8,17.2,93,70,35,30.04,29.85,13,1,13,0.00
2013-2-6,62.3,42.7,22.2,37.1,29.7,20.2,95,65,35,30.06,29.82,13,2,13,0.00
2013-2-7,50.5,44.5,33.8,47.2,40.6,29.2,97,87,60,30.11,29.78,10,1,11,0.91
2013-2-8,36.0,32.5,29.0,28.9,27.3,25.6,87,81,72,30.30,30.10,11,1,11,0.00
2013-2-9,48.0,36.6,28.4,36.6,29.7,25.4,92,78,46,30.21,29.73,16,3,16,0.06
2013-2-10,57.6,47.4,38.2,48.8,36.0,23.5,95,68,40,29.81,29.38,32,11,32,0.05
2013-2-11,48.5,37.5,25.0,26.9,24.6,21.6,88,61,36,30.08,29.81,16,4,16,0.00
2013-2-12,40.5,30.6,19.9,29.7,24.5,17.9,94,79,54,30.10,29.88,2,0,2,0.00
2013-2-13,54.5,39.7,26.6,35.3,28.0,23.3,88,66,32,29.88,29.72,14,2,15,0.00
2013-2-14,51.3,42.3,28.8,33.0,28.7,24.3,88,60,40,30.05,29.74,13,1,14,0.00
2013-2-15,37.8,31.3,24.7,28.1,14.8,6.3,85,52,27,30.30,30.05,13,2,14,0.00
2013-2-16,35.2,28.7,16.1,22.1,17.2,12.0,86,62,46,30.27,30.04,12,1,14,0.00
2013-2-17,58.9,44.2,27.9,31.6,25.6,19.0,69,50,32,30.04,29.62,12,1,12,0.00
2013-2-18,55.4,45.0,28.8,50.3,33.4,17.1,92,65,45,29.98,29.42,21,5,22,0.26
2013-2-19,35.0,26.8,15.9,17.5,10.0,-0.1,75,51,24,30.31,29.98,17,4,17,0.00
2013-2-20,25.8,20.0,12.8,14.2,10.1,4.7,83,65,56,30.36,30.16,6,0,6,0.00
2013-2-21,28.1,24.3,21.3,26.5,20.3,13.5,96,85,63,30.17,29.70,16,3,17,0.00
2013-2-22,29.4,24.5,9.3,28.6,20.4,5.9,97,85,68,30.04,29.71,13,3,13,0.09
2013-2-23,33.2,17.6,-0.6,17.7,9.7,-5.3,86,73,49,30.05,29.93,11,1,12,0.08
2013-2-24,44.1,27.9,3.7,25.7,16.7,-0.6,87,65,44,30.01,29.87,8,0,8,0.05
2013-2-25,39.5,33.9,27.8,31.3,26.5,22.4,96,75,60,29.92,29.55,16,1,16,0.00
2013-2-26,33.7,32.5,31.3,32.6,30.8,29.2,99,94,86,29.75,29.39,12,1,14,0.17
2013-2-27,31.9,30.6,29.5,29.3,28.1,25.5,96,90,80,29.91,29.73,15,4,18,0.38
2013-3-4,48.8,42.4,37.3,32.2,30.6,29.0,73,63,52,29.84,29.58,10,1,10,0.00
2013-3-5,37.3,33.0,29.3,32.3,22.9,16.6,94,67,53,30.25,29.84,20,7,20,0.07
2013-3-6,34.0,27.8,19.1,21.0,18.4,15.8,89,68,55,30.37,30.25,13,1,13,0.00
2013-3-7,44.2,33.6,18.1,29.2,23.9,15.3,90,68,53,30.27,30.10,11,2,12,0.00
2013-3-8,51.4,42.0,31.2,38.4,31.8,26.3,85,68,53,30.17,29.95,8,1,8,0.01
2013-3-9,63.4,49.0,41.8,48.5,41.9,37.8,99,78,52,29.95,29.57,14,2,14,0.83
2013-3-10,54.2,45.4,31.5,53.8,43.0,26.9,99,92,80,29.78,29.46,16,4,18,0.91
2013-3-11,36.0,30.6,26.1,27.1,23.9,22.1,89,76,59,29.94,29.75,18,7,18,0.00
2013-3-12,47.3,34.2,25.4,29.9,24.3,21.7,92,69,39,30.25,29.94,19,3,20,0.01
2013-3-13,43.9,32.7,24.4,25.4,20.6,17.7,84,62,37,30.42,30.24,8,0,10,0.00
2013-3-14,70.8,47.2,26.9,41.6,31.8,22.5,88,59,31,30.29,29.94,18,3,19,0.00
2013-3-15,78.1,54.3,31.0,49.4,41.1,29.4,96,67,32,29.98,29.54,17,2,17,0.00
2013-3-16,57.8,44.6,37.5,48.2,37.1,29.0,87,75,63,30.00,29.55,14,1,14,0.00
2013-3-17,37.5,34.3,32.8,33.0,30.0,26.7,95,84,71,30.00,29.69,57,2,14,0.64
2013-3-18,52.6,41.1,32.4,37.6,30.5,20.3,97,71,31,29.99,29.66,22,3,22,0.01
2013-3-19,42.1,34.3,24.7,34.8,25.1,12.4,92,72,34,30.17,29.98,12,1,12,0.00
2013-3-20,36.9,31.2,21.1,33.0,14.8,5.0,96,54,27,30.32,30.09,18,3,18,0.00
2013-3-21,30.6,26.4,18.0,26.6,18.3,11.7,87,72,51,30.09,29.88,10,1,11,0.00
2013-3-22,35.0,32.6,29.5,33.1,29.2,25.8,94,87,80,29.94,29.87,7,1,7,0.02
2013-3-23,42.8,35.8,32.5,34.5,29.9,27.9,96,80,57,29.95,29.79,10,1,10,0.46
2013-3-24,33.7,30.7,26.0,32.6,28.8,19.5,98,93,76,29.98,29.65,20,3,20,0.48
2013-3-25,33.1,28.6,23.2,26.1,22.5,18.2,90,78,66,30.25,29.95,17,5,17,0.17
2013-3-26,38.5,29.9,21.9,23.5,21.4,18.3,89,72,50,30.34,30.25,11,1,11,0.00
2013-3-27,47.7,35.5,22.2,32.4,26.8,20.2,93,72,47,30.29,30.14,14,1,14,0.00
2013-3-28,64.0,50.8,39.6,42.1,36.1,31.5,76,59,38,30.17,30.03,8,1,8,0.00
2013-3-29,66.0,53.5,39.1,45.1,38.9,33.1,89,61,30,30.12,30.02,13,2,13,0.05
2013-3-30,59.2,52.0,42.8,53.1,46.2,36.4,96,81,57,30.03,29.77,11,1,13,0.09
2013-3-31,67.4,53.1,38.8,50.4,41.0,32.3,99,69,33,29.88,29.80,14,2,14,0.01
2013-4-1,47.4,40.1,28.5,34.8,24.3,13.8,85,56,27,30.22,29.88,11,1,11,0.00
2013-4-2,47.7,36.4,26.6,25.8,21.0,15.2,85,56,31,30.28,30.18,7,1,9,0.00
2013-4-3,50.2,39.4,27.2,25.7,22.2,15.4,90,54,26,30.31,30.15,13,2,16,0.00
2013-4-4,62.3,46.8,36.2,31.9,26.6,19.8,83,50,21,30.15,29.96,8,0,9,0.00
2013-4-5,69.1,51.6,31.0,42.8,35.7,27.7,88,58,32,30.09,29.79,14,2,17,0.00
2013-4-6,74.6,63.0,52.5,50.5,43.3,35.1,73,49,39,29.79,29.55,31,7,31,0.00
2013-4-7,76.1,58.8,38.9,56.0,47.4,37.3,96,69,35,29.78,29.56,18,1,18,0.27
2013-4-8,75.4,65.4,54.1,61.5,57.7,51.0,98,77,61,29.64,29.55,17,2,17,0.24
2013-4-9,74.2,69.6,65.6,62.1,59.6,57.4,76,70,64,29.68,29.55,14,2,14,0.00
2013-4-10,72.8,49.9,42.9,61.7,47.2,40.7,96,91,62,29.77,29.55,15,2,22,1.21
2013-4-11,42.8,38.4,35.3,40.6,31.0,27.1,93,75,57,29.71,29.64,20,7,21,0.00
2013-4-12,51.3,39.8,32.2,34.3,29.8,26.5,89,69,46,29.94,29.69,18,4,18,0.00
2013-4-13,64.2,47.9,28.1,43.6,35.9,26.8,96,66,41,30.00,29.65,10,1,14,0.00
2013-4-14,78.1,65.3,52.2,58.3,47.2,40.9,93,55,27,29.65,29.36,36,6,37,0.22
2013-4-15,58.3,50.3,44.9,55.5,43.3,37.1,96,78,58,29.89,29.58,6,0,7,0.40
2013-4-16,46.5,44.3,41.3,40.1,36.9,34.3,88,75,68,30.06,29.89,12,2,12,0.08
2013-4-17,60.5,52.3,46.5,59.3,50.4,40.1,99,93,78,29.99,29.51,11,2,11,1.10
2013-4-18,51.7,43.5,38.2,51.4,39.3,27.7,99,86,63,29.83,29.43,43,6,43,1.74
2013-4-19,52.8,41.7,32.9,32.4,25.4,17.5,89,55,27,30.01,29.81,24,7,24,0.00
2013-4-20,56.0,43.1,26.7,34.3,29.2,23.9,95,62,35,30.19,30.01,12,2,12,0.00
2013-4-21,68.8,58.2,47.4,43.6,38.0,32.4,68,49,31,30.15,30.00,25,4,25,0.00
2013-4-22,68.9,59.0,45.2,50.3,41.1,35.4,78,53,31,30.05,29.81,16,2,18,0.02
2013-4-23,54.5,39.9,35.3,49.7,37.4,33.4,95,91,77,30.07,29.84,13,1,13,0.83
2013-4-24,52.2,41.3,31.9,34.7,29.7,22.4,96,67,36,30.19,30.06,16,2,16,0.10
2013-4-25,66.6,52.0,32.8,42.2,36.2,30.2,92,58,33,30.23,30.07,8,0,8,0.00
2013-4-26,58.3,52.4,48.2,48.3,45.3,37.6,96,78,47,30.18,30.06,22,2,22,0.38
2013-4-27,53.9,49.9,47.6,50.0,48.2,46.5,97,94,85,30.13,29.90,6,0,6,0.35
2013-4-28,71.1,57.6,46.4,54.6,50.0,45.8,99,78,50,29.90,29.71,13,1,13,0.00
2013-4-29,83.8,69.7,53.3,63.5,56.3,48.2,85,64,45,29.73,29.53,20,4,20,0.00
2013-4-30,82.8,73.4,62.6,58.4,53.2,45.9,77,51,28,29.73,29.55,20,4,20,0.00
2013-5-1,83.4,70.5,50.2,61.4,53.2,42.6,75,55,36,30.02,29.73,13,2,13,0.00
2013-5-2,49.9,41.1,32.5,42.4,36.6,31.3,96,84,75,30.26,30.01,16,3,18,0.36
2013-5-3,35.8,34.4,32.4,34.2,33.0,31.3,98,95,92,30.20,29.82,12,1,12,1.43
2013-5-4,46.2,40.0,33.4,41.2,36.3,32.3,98,87,74,29.94,29.75,6,0,6,0.27
2013-5-5,62.3,52.0,44.6,53.2,47.4,41.2,96,85,68,29.99,29.90,14,1,14,0.01
2013-5-6,70.9,57.8,51.3,56.3,51.3,49.0,95,81,49,30.00,29.89,11,0,11,0.00
2013-5-7,77.0,62.0,44.1,57.7,49.9,43.0,98,70,35,29.97,29.85,5,0,6,0.00
2013-5-8,73.7,62.6,49.6,59.6,54.5,48.5,97,77,53,29.92,29.77,10,1,10,0.03
2013-5-9,76.3,65.1,58.9,63.5,59.1,54.2,97,82,47,29.80,29.72,13,1,13,0.39
2013-5-10,64.3,57.2,47.6,57.8,53.0,46.2,99,87,63,29.94,29.77,7,0,7,0.01
2013-5-11,66.1,54.6,41.5,53.7,37.4,28.0,99,60,25,30.13,29.93,13,2,21,0.01
2013-5-12,66.4,50.2,31.6,43.2,31.9,22.0,97,58,22,30.19,30.04,13,0,13,0.00
2013-5-13,76.8,61.0,40.6,55.6,46.4,39.0,97,63,34,30.06,29.82,16,1,16,0.00
2013-5-14,91.6,76.2,62.3,60.4,54.0,48.1,80,51,23,29.82,29.66,20,4,20,0.00
2013-5-15,84.9,74.8,65.2,67.9,60.2,54.2,80,61,48,29.77,29.69,17,2,18,0.00
2013-5-16,79.4,68.7,58.0,65.3,60.8,56.6,97,78,54,29.79,29.69,16,1,16,0.01
2013-5-17,79.9,66.8,55.6,64.7,59.6,54.4,97,79,54,29.84,29.74,4,0,4,0.00
2013-5-18,85.5,72.6,56.9,70.4,64.4,56.0,98,77,52,29.80,29.62,12,2,12,0.00
2013-5-19,86.7,73.7,59.8,70.5,65.0,58.6,96,76,51,29.73,29.42,19,2,19,2.42
2013-5-20,77.2,64.8,59.3,68.6,61.6,57.5,98,90,69,29.69,29.50,25,1,58,2.39
2013-5-21,72.0,64.7,58.9,61.6,58.5,54.8,96,81,62,29.68,29.55,14,1,14,0.01
2013-5-22,67.4,60.6,52.2,58.3,53.3,50.6,98,78,59,29.81,29.60,16,2,16,0.00
2013-5-23,68.1,60.0,51.9,56.9,53.0,49.3,94,78,64,30.11,29.81,11,0,11,0.00
2013-5-24,72.0,59.7,45.8,54.4,47.6,41.6,99,69,35,30.25,30.06,16,2,16,0.00
2013-5-25,81.6,68.9,56.0,66.7,58.0,46.3,92,69,57,30.08,29.89,12,1,12,0.18
2013-5-26,84.1,74.6,65.5,69.8,66.0,62.5,94,75,56,29.95,29.78,16,1,18,0.00
2013-5-27,77.6,70.3,62.6,69.8,64.8,59.3,97,83,72,29.87,29.57,17,1,18,1.81
2013-5-28,78.6,72.6,69.6,70.1,67.7,65.0,96,85,72,29.69,29.54,11,1,11,0.09
2013-5-29,83.8,75.3,66.0,70.1,65.5,60.5,95,72,55,29.74,29.54,20,2,20,0.04
2013-5-30,74.0,65.4,62.6,67.9,62.1,60.2,95,89,77,29.66,29.53,18,2,18,1.50
2013-5-31,76.5,66.1,59.8,70.3,63.2,58.7,98,91,79,29.71,29.54,38,1,17,2.84
2013-6-1,73.0,65.1,56.0,63.3,57.7,52.9,98,78,52,29.84,29.56,13,2,14,0.01
2013-6-2,66.6,59.0,49.4,55.6,52.2,47.2,94,79,56,29.97,29.83,6,0,7,0.00
2013-6-3,73.3,59.9,44.6,57.2,51.2,43.8,99,75,52,29.99,29.80,12,1,12,0.00
2013-6-4,73.2,65.3,60.1,65.7,59.9,54.8,96,83,73,29.92,29.77,12,1,12,0.14
2013-6-5,69.3,63.8,59.2,66.2,61.7,57.2,96,93,86,29.87,29.77,7,0,10,0.20
2013-6-6,75.6,67.1,55.6,63.4,57.8,52.5,97,74,47,29.83,29.77,6,0,6,0.00
2013-6-7,75.3,62.2,50.1,60.1,53.5,49.3,99,77,43,29.89,29.78,8,0,8,0.00
2013-6-8,79.2,67.3,48.9,59.5,55.3,48.1,99,69,43,29.83,29.67,12,0,12,0.00
2013-6-9,79.9,69.9,61.0,64.6,60.3,52.9,96,74,40,29.75,29.62,19,2,19,0.44
2013-6-10,86.3,71.1,58.9,66.5,61.4,56.2,97,73,46,29.77,29.68,11,0,11,0.00
2013-6-11,93.6,80.1,66.4,69.8,65.9,61.4,91,64,35,29.76,29.65,18,2,19,0.00
2013-6-12,92.9,83.8,74.4,73.8,70.5,66.9,84,65,48,29.71,29.61,24,4,24,0.00
2013-6-13,86.1,74.0,62.4,68.8,61.1,56.1,92,66,39,29.91,29.71,10,0,10,0.00
2013-6-14,86.3,75.3,61.8,68.7,65.0,60.9,98,73,50,29.92,29.76,14,2,14,0.00
2013-6-15,85.3,76.6,69.4,75.2,69.0,63.4,91,77,67,29.86,29.75,12,1,12,0.10
2013-6-16,82.6,73.8,66.3,74.4,69.9,65.1,98,88,73,29.84,29.75,7,0,7,0.01
2013-6-17,73.2,70.5,68.1,71.5,67.9,64.5,96,92,81,29.82,29.73,6,0,7,0.00
2013-6-18,86.1,77.7,65.5,69.0,65.3,59.4,95,68,43,29.88,29.83,6,0,6,0.01
2013-6-19,86.7,74.5,61.0,68.8,64.9,60.4,99,74,47,29.91,29.82,8,0,8,0.00
2013-6-20,88.2,79.5,68.6,71.1,68.1,65.5,91,69,51,29.90,29.78,11,1,12,0.00
2013-6-21,91.8,83.2,75.4,75.8,71.6,68.1,82,68,52,29.86,29.76,21,2,21,0.00
2013-6-22,91.4,83.0,71.1,73.6,71.6,68.6,94,69,49,29.86,29.72,16,2,16,0.00
2013-6-23,89.5,80.2,74.4,74.9,71.0,68.9,85,74,57,29.81,29.70,15,2,15,0.00
2013-6-24,91.0,82.1,73.7,74.0,70.6,67.8,86,69,48,29.83,29.66,14,2,17,0.00
2013-6-25,87.6,81.7,77.9,73.9,70.3,68.0,80,68,55,29.75,29.58,18,2,18,0.00
2013-6-26,97.1,84.0,70.3,75.0,69.8,58.6,92,65,29,29.72,29.57,13,2,14,0.00
2013-6-27,91.4,75.2,64.5,75.8,69.6,63.6,98,84,48,29.87,29.64,30,0,30,0.18
2013-6-28,86.7,76.6,66.3,72.2,64.7,57.3,99,71,38,29.85,29.68,16,1,24,1.10
2013-6-29,82.2,72.6,63.7,64.0,60.2,55.8,91,66,41,29.71,29.63,21,1,21,0.00
2013-6-30,78.8,70.1,62.0,63.4,59.9,57.5,94,71,50,29.87,29.71,8,0,8,0.01
2013-7-1,81.4,70.1,59.2,59.4,54.6,47.1,88,62,31,29.95,29.87,11,0,11,0.00
2013-7-2,82.8,69.8,55.3,64.8,55.7,49.8,93,65,35,29.98,29.90,6,0,6,0.00
2013-7-3,84.0,68.4,57.2,63.4,58.6,54.6,96,74,40,29.95,29.86,10,1,10,0.26
2013-7-4,87.2,71.1,54.8,64.5,58.3,53.6,98,69,34,29.94,29.82,3,0,5,0.00
2013-7-5,87.6,75.3,58.3,65.6,60.7,57.1,96,64,36,29.89,29.78,14,1,14,0.00
2013-7-6,89.3,75.8,63.2,67.9,64.3,60.6,95,70,39,29.85,29.77,11,0,13,0.00
2013-7-7,90.1,78.3,67.4,71.5,66.9,64.1,93,70,44,29.86,29.79,13,1,14,0.00
2013-7-8,92.7,80.7,72.7,74.0,69.1,65.6,81,68,46,29.90,29.82,8,0,14,0.00
2013-7-9,95.6,84.7,73.5,76.7,72.2,68.9,86,67,47,29.87,29.70,11,1,11,0.00
2013-7-10,91.8,83.8,70.6,75.4,69.2,59.5,84,63,35,29.87,29.73,7,0,10,0.00
2013-7-11,85.5,75.1,63.7,64.4,60.7,54.3,88,63,35,29.94,29.84,11,1,11,0.00
2013-7-12,87.0,75.1,62.0,63.6,59.9,53.7,92,61,35,29.95,29.85,11,2,11,0.00
2013-7-13,85.1,75.2,63.2,66.6,61.8,58.4,86,64,48,29.93,29.83,10,1,11,0.00
2013-7-14,85.5,75.2,62.3,64.9,61.2,54.2,93,65,36,29.96,29.88,13,2,13,0.00
2013-7-15,89.0,78.0,67.6,70.4,67.5,64.8,94,72,47,30.06,29.95,10,1,13,0.00
2013-7-16,94.0,81.4,69.8,74.1,70.2,62.8,96,72,36,30.12,30.03,10,0,11,0.12
2013-7-17,95.1,81.0,69.9,74.9,71.4,66.7,98,76,41,30.18,30.03,3,0,3,0.00
2013-7-18,96.8,82.7,69.3,75.9,70.0,62.7,98,70,34,30.06,29.83,7,0,7,0.00
2013-7-19,97.5,83.4,70.1,75.3,68.7,61.7,95,66,31,29.86,29.69,10,1,12,0.00
2013-7-20,84.7,78.1,71.5,75.3,70.4,64.2,91,77,55,29.81,29.71,12,0,12,0.00
2013-7-21,87.6,77.8,71.1,72.2,69.3,66.8,91,76,50,29.78,29.66,9,1,9,0.01
2013-7-22,93.4,86.3,72.8,73.2,69.0,64.4,85,57,40,29.69,29.61,11,1,11,0.00
2013-7-23,86.1,78.9,69.8,74.0,69.4,63.0,95,73,53,29.77,29.65,7,0,12,0.00
2013-7-24,84.0,73.8,65.0,63.4,61.4,57.8,88,67,43,29.91,29.77,6,0,7,0.00
2013-7-25,86.1,72.4,59.6,72.0,63.9,58.4,98,78,43,29.98,29.87,8,0,8,0.05
2013-7-26,82.8,72.9,63.2,72.9,68.0,57.5,98,85,61,29.91,29.83,7,0,7,0.99
2013-7-27,78.3,66.5,55.3,58.3,54.8,50.1,97,69,38,29.97,29.84,7,0,8,0.00
2013-7-28,79.4,65.5,51.9,59.4,53.8,47.2,98,70,34,29.93,29.89,5,0,5,0.00
2013-7-29,71.6,66.7,60.4,68.8,63.9,58.3,96,91,81,29.99,29.87,10,1,11,0.20
2013-7-30,82.0,74.8,70.3,75.8,72.1,68.6,97,91,76,29.90,29.83,3,0,5,0.11
2013-7-31,80.7,74.4,65.6,71.7,68.5,63.8,95,83,61,29.97,29.89,6,0,6,0.00
2013-8-1,89.0,74.7,61.2,72.4,66.0,60.6,99,78,44,29.97,29.82,5,0,6,0.00
2013-8-2,83.8,75.2,69.6,75.6,71.0,67.3,97,87,73,29.83,29.72,7,0,7,0.25
2013-8-3,84.3,75.9,71.3,73.9,70.6,68.6,95,84,65,29.97,29.75,11,1,12,0.00
2013-8-4,74.6,71.5,68.1,70.8,66.6,61.8,94,85,75,30.03,29.90,10,0,10,0.49
2013-8-5,87.8,76.6,68.4,75.8,71.9,67.5,98,86,63,29.92,29.68,6,0,6,0.00
2013-8-6,88.8,79.2,70.3,77.8,73.5,68.8,97,84,62,29.75,29.65,13,1,14,0.70
2013-8-7,85.5,76.9,71.5,75.1,72.5,67.4,98,87,61,29.80,29.62,15,1,15,2.44
2013-8-8,77.2,71.6,67.1,70.2,67.4,64.9,94,87,73,29.86,29.75,12,0,12,0.00
2013-8-9,76.1,71.2,66.4,71.5,68.1,65.5,97,90,81,29.97,29.84,2,0,4,0.01
2013-8-10,83.2,72.3,63.1,67.1,64.3,60.2,99,78,48,30.06,29.95,10,1,10,0.01
2013-8-11,87.4,72.5,58.0,73.4,65.2,57.4,99,80,53,30.01,29.87,8,0,8,0.01
2013-8-12,84.0,74.1,68.8,72.6,69.6,66.9,98,87,59,29.92,29.80,7,0,7,0.51
2013-8-13,79.9,70.8,64.2,67.5,64.3,59.2,98,82,51,29.98,29.87,11,0,11,0.01
2013-8-14,76.0,67.9,59.8,63.1,58.0,53.1,92,72,45,30.08,29.98,8,1,12,0.00
2013-8-15,74.6,66.5,57.2,59.5,56.8,53.6,95,72,49,30.02,29.90,10,0,10,0.00
2013-8-16,76.0,65.4,57.2,60.7,57.3,53.9,96,77,49,30.04,29.96,8,0,8,0.00
2013-8-17,77.6,64.6,51.6,62.3,56.4,51.0,99,78,45,30.08,29.97,10,1,10,0.00
2013-8-18,79.6,62.1,54.1,64.8,57.9,53.5,99,88,55,30.05,30.00,3,0,3,0.01